createdAt,value
2023-02-18T00:02:23.258Z,98246.28
2023-02-18T00:04:49.935Z,98246.28
2023-02-18T00:07:16.333Z,98256.13
2023-02-18T00:09:42.746Z,98254.53
2023-02-18T00:12:09.437Z,98246.78
2023-02-18T00:14:36.366Z,98238.75
2023-02-18T00:17:02.769Z,98240.84
2023-02-18T00:19:29.144Z,98240.84
2023-02-18T00:21:55.525Z,98232.03
2023-02-18T00:24:21.953Z,98230.41
2023-02-18T00:26:48.386Z,98225.31
2023-02-18T00:29:14.966Z,98225.31
2023-02-18T00:31:41.575Z,98220.22
2023-02-18T00:34:08.221Z,98212.22
2023-02-18T00:36:34.753Z,98213.25
2023-02-18T00:39:03.039Z,98212.66
2023-02-18T00:41:29.427Z,98201.22
2023-02-18T00:43:55.950Z,98209.22
2023-02-18T00:46:22.270Z,98213.97
2023-02-18T00:48:48.762Z,98199.00
2023-02-18T00:51:15.080Z,98196.31
2023-02-18T00:53:41.331Z,98198.19
2023-02-18T00:56:08.050Z,98199.22
2023-02-18T00:58:34.577Z,98205.63
2023-02-18T01:01:00.947Z,98205.84
2023-02-18T01:03:27.331Z,98206.66
2023-02-18T01:05:53.832Z,98214.06
2023-02-18T01:08:21.344Z,98206.06
2023-02-18T01:10:47.759Z,98200.75
2023-02-18T01:13:14.330Z,98196.47
2023-02-18T01:15:40.973Z,98200.19
2023-02-18T01:18:07.294Z,98195.88
2023-02-18T01:20:33.876Z,98198.53
2023-02-18T01:23:03.374Z,98204.94
2023-02-18T01:25:29.662Z,98197.19
2023-02-18T01:27:56.067Z,98199.84
2023-02-18T01:30:22.526Z,98198.22
2023-02-18T01:32:48.819Z,98201.94
2023-02-18T01:35:15.478Z,98206.44
2023-02-18T01:37:42.202Z,98205.63
2023-02-18T01:40:09.156Z,98209.34
2023-02-18T01:42:36.134Z,98212.84
2023-02-18T01:45:02.572Z,98203.19
2023-02-18T01:47:29.739Z,98206.91
2023-02-18T01:49:56.310Z,98205.84
2023-02-18T01:52:22.745Z,98206.91
2023-02-18T01:54:49.096Z,98200.75
2023-02-18T01:57:15.540Z,98182.34
2023-02-18T01:59:41.962Z,98186.06
2023-02-18T02:02:08.293Z,98189.75
2023-02-18T02:04:34.640Z,98184.41
2023-02-18T02:07:01.034Z,98184.41
2023-02-18T02:09:27.314Z,98182.00
2023-02-18T02:11:54.172Z,98167.84
2023-02-18T02:14:20.455Z,98172.16
2023-02-18T02:16:46.823Z,98174.22
2023-02-18T02:19:13.298Z,98174.22
2023-02-18T02:21:39.614Z,98173.41
2023-02-18T02:24:05.887Z,98172.59
2023-02-18T02:26:32.317Z,98167.25
2023-02-18T02:28:59.382Z,98168.06
2023-02-18T02:31:26.072Z,98151.50
2023-02-18T02:36:44.488Z,98164.03
2023-02-18T02:39:11.353Z,98157.06
2023-02-18T02:41:38.064Z,98152.56
2023-02-18T02:44:04.544Z,98145.59
2023-02-18T02:46:30.866Z,98150.13
2023-02-18T02:48:57.890Z,98143.97
2023-02-18T02:51:24.176Z,98133.31
2023-02-18T02:53:50.411Z,98135.16
2023-02-18T02:56:16.817Z,98139.72
2023-02-18T02:58:43.096Z,98130.88
2023-02-18T03:01:09.665Z,98133.56
2023-02-18T03:03:36.073Z,98124.88
2023-02-18T03:08:55.820Z,98121.50
2023-02-18T03:11:22.133Z,98115.38
2023-02-18T03:13:48.569Z,98113.50
2023-02-18T03:16:15.563Z,98110.03
2023-02-18T03:18:41.887Z,98096.72
2023-02-18T03:21:08.214Z,98106.56
2023-02-18T03:23:34.550Z,98097.75
2023-02-18T03:26:00.965Z,98100.41
2023-02-18T03:28:27.499Z,98092.41
2023-02-18T03:30:53.768Z,98088.91
2023-02-18T03:33:20.181Z,98090.78
2023-02-18T03:35:46.473Z,98087.31
2023-02-18T03:38:13.561Z,98069.72
2023-02-18T03:40:39.814Z,98060.91
2023-02-18T03:43:06.084Z,98075.03
2023-02-18T03:45:32.415Z,98058.47
2023-02-18T03:47:59.439Z,98056.63
2023-02-18T03:50:26.138Z,98061.13
2023-02-18T03:52:52.444Z,98060.06
2023-02-18T03:55:18.913Z,98055.81
2023-02-18T03:57:45.230Z,98052.06
2023-02-18T04:00:11.649Z,98052.31
2023-02-18T04:02:38.008Z,98039.00
2023-02-18T04:05:04.773Z,98030.19
2023-02-18T04:07:31.213Z,98025.66
2023-02-18T04:09:57.647Z,98024.84
2023-02-18T04:12:24.398Z,98024.06
2023-02-18T04:14:51.920Z,98022.41
2023-02-18T04:17:18.337Z,98010.97
2023-02-18T04:19:44.620Z,98020.81
2023-02-18T04:22:10.918Z,98015.47
2023-02-18T04:24:37.475Z,98021.63
2023-02-18T04:27:03.761Z,98010.16
2023-02-18T04:29:32.515Z,98021.84
2023-02-18T04:31:59.112Z,98014.66
2023-02-18T04:34:25.420Z,98002.41
2023-02-18T04:36:51.726Z,98009.56
2023-02-18T04:39:18.052Z,98007.72
2023-02-18T04:41:44.320Z,98001.56
2023-02-18T04:44:11.003Z,98007.72
2023-02-18T04:46:37.328Z,97994.41
2023-02-18T04:49:03.845Z,97999.50
2023-02-18T04:51:30.360Z,97994.97
2023-02-18T04:53:56.735Z,97982.19
2023-02-18T04:56:22.996Z,97987.31
2023-02-18T04:58:49.334Z,97980.09
2023-02-18T05:01:15.631Z,97979.88
2023-02-18T05:03:42.259Z,97969.78
2023-02-18T05:06:08.958Z,97979.41
2023-02-18T05:08:35.582Z,97975.69
2023-02-18T05:11:01.962Z,97972.53
2023-02-18T05:13:28.257Z,97968.03
2023-02-18T05:15:55.700Z,97965.09
2023-02-18T05:21:07.588Z,97959.28
2023-02-18T05:23:34.329Z,97959.88
2023-02-18T05:26:04.631Z,97953.50
2023-02-18T05:28:31.606Z,97944.19
2023-02-18T05:30:58.358Z,97944.78
2023-02-18T05:33:25.262Z,97946.41
2023-02-18T05:35:57.279Z,97943.50
2023-02-18T05:38:23.535Z,97943.00
2023-02-18T05:40:50.389Z,97928.59
2023-02-18T05:43:16.695Z,97930.00
2023-02-18T05:45:43.261Z,97920.69
2023-02-18T05:48:09.608Z,97929.25
2023-02-18T05:50:36.511Z,97918.91
2023-02-18T05:53:03.543Z,97945.13
2023-02-18T05:55:29.839Z,97930.47
2023-02-18T05:57:56.612Z,97923.06
2023-02-18T06:00:23.399Z,97925.22
2023-02-18T06:02:49.843Z,97930.09
2023-02-18T06:05:16.547Z,97908.25
2023-02-18T06:07:42.922Z,97908.06
2023-02-18T06:10:10.619Z,97913.97
2023-02-18T06:12:37.177Z,97917.97
2023-02-18T06:15:03.860Z,97919.63
2023-02-18T06:17:30.350Z,97916.69
2023-02-18T06:19:56.719Z,97921.53
2023-02-18T06:22:22.980Z,97921.03
2023-02-18T06:24:49.328Z,97914.44
2023-02-18T06:27:16.537Z,97921.38
2023-02-18T06:29:43.574Z,97915.56
2023-02-18T06:32:10.114Z,97911.81
2023-02-18T06:34:36.817Z,97915.06
2023-02-18T06:37:03.726Z,97911.31
2023-02-18T06:39:30.108Z,97901.72
2023-02-18T06:41:57.764Z,97903.88
2023-02-18T06:44:24.158Z,97896.94
2023-02-18T06:46:50.808Z,97903.88
2023-02-18T06:49:17.950Z,97897.75
2023-02-18T06:51:44.269Z,97891.59
2023-02-18T06:54:10.836Z,97887.88
2023-02-18T06:56:37.869Z,97885.22
2023-02-18T06:59:04.194Z,97869.44
2023-02-18T07:01:30.462Z,97868.63
2023-02-18T07:03:56.753Z,97873.97
2023-02-18T07:06:23.174Z,97866.78
2023-02-18T07:08:49.492Z,97863.28
2023-02-18T07:11:16.281Z,97868.63
2023-02-18T07:13:42.576Z,97857.16
2023-02-18T07:16:09.533Z,97844.38
2023-02-18T07:18:36.320Z,97844.91
2023-02-18T07:21:03.100Z,97830.78
2023-02-18T07:23:29.468Z,97840.41
2023-02-18T07:25:55.785Z,97843.63
2023-02-18T07:28:22.044Z,97845.25
2023-02-18T07:30:48.579Z,97842.34
2023-02-18T07:33:14.879Z,97842.09
2023-02-18T07:35:41.354Z,97849.03
2023-02-18T07:38:08.605Z,97847.97
2023-02-18T07:40:35.395Z,97837.84
2023-02-18T07:43:01.727Z,97838.41
2023-02-18T07:45:28.440Z,97848.06
2023-02-18T07:47:54.820Z,97841.66
2023-02-18T07:50:21.118Z,97841.41
2023-02-18T07:52:47.678Z,97842.78
2023-02-18T07:55:14.589Z,97834.53
2023-02-18T07:57:41.541Z,97830.00
2023-02-18T08:00:08.813Z,97827.06
2023-02-18T08:02:38.377Z,97832.16
2023-02-18T08:05:05.506Z,97818.56
2023-02-18T08:07:32.192Z,97828.44
2023-02-18T08:09:58.498Z,97825.75
2023-02-18T08:12:24.872Z,97821.47
2023-02-18T08:14:51.130Z,97824.97
2023-02-18T08:17:18.571Z,97824.97
2023-02-18T08:19:44.804Z,97819.84
2023-02-18T08:22:11.065Z,97829.75
2023-02-18T08:24:37.367Z,97821.75
2023-02-18T08:27:03.774Z,97830.53
2023-02-18T08:29:30.228Z,97827.31
2023-02-18T08:31:56.543Z,97821.16
2023-02-18T08:34:23.004Z,97821.16
2023-02-18T08:36:49.832Z,97824.09
2023-02-18T08:39:16.306Z,97820.34
2023-02-18T08:41:42.791Z,97818.75
2023-02-18T08:44:09.117Z,97819.78
2023-02-18T08:46:36.516Z,97810.19
2023-02-18T08:49:03.537Z,97808.56
2023-02-18T08:51:29.824Z,97802.16
2023-02-18T08:53:56.111Z,97809.13
2023-02-18T08:56:22.345Z,97804.84
2023-02-18T08:58:48.754Z,97807.50
2023-02-18T09:01:15.362Z,97793.34
2023-02-18T09:03:41.705Z,97790.94
2023-02-18T09:06:08.553Z,97789.31
2023-02-18T09:08:34.929Z,97795.44
2023-02-18T09:11:01.480Z,97799.19
2023-02-18T09:13:28.644Z,97798.38
2023-02-18T09:15:54.961Z,97792.22
2023-02-18T09:18:21.368Z,97800.22
2023-02-18T09:23:34.541Z,97791.91
2023-02-18T09:26:01.262Z,97788.47
2023-02-18T09:28:27.543Z,97787.63
2023-02-18T09:30:54.008Z,97802.59
2023-02-18T09:33:20.624Z,97796.47
2023-02-18T09:35:46.907Z,97786.81
2023-02-18T09:38:13.477Z,97790.31
2023-02-18T09:40:39.773Z,97781.50
2023-02-18T09:43:08.449Z,97787.38
2023-02-18T09:45:34.817Z,97793.53
2023-02-18T09:48:01.118Z,97795.16
2023-02-18T09:50:27.984Z,97790.63
2023-02-18T09:52:54.530Z,97805.56
2023-02-18T09:55:22.861Z,97789.81
2023-02-18T09:57:49.093Z,97797.81
2023-02-18T10:00:15.346Z,97787.13
2023-02-18T10:02:41.686Z,97795.16
2023-02-18T10:05:08.294Z,97801.03
2023-02-18T10:07:34.651Z,97800.00
2023-02-18T10:10:00.952Z,97791.50
2023-02-18T10:12:27.292Z,97793.91
2023-02-18T10:14:56.868Z,97788.31
2023-02-18T10:17:23.257Z,97786.72
2023-02-18T10:19:49.552Z,97785.09
2023-02-18T10:22:15.904Z,97781.38
2023-02-18T10:24:42.236Z,97770.69
2023-02-18T10:27:08.552Z,97781.13
2023-02-18T10:29:37.988Z,97769.38
2023-02-18T10:32:04.559Z,97785.41
2023-02-18T10:34:31.548Z,97782.47
2023-02-18T10:36:57.868Z,97775.84
2023-02-18T10:39:26.918Z,97766.75
2023-02-18T10:41:53.602Z,97771.06
2023-02-18T10:44:20.131Z,97760.13
2023-02-18T10:46:46.464Z,97750.25
2023-02-18T10:49:13.336Z,97747.59
2023-02-18T10:51:43.092Z,97748.38
2023-02-18T10:54:09.342Z,97754.28
2023-02-18T10:56:35.755Z,97743.03
2023-02-18T10:59:02.232Z,97749.44
2023-02-18T11:01:28.647Z,97755.03
2023-02-18T11:03:55.106Z,97744.63
2023-02-18T11:06:21.545Z,97738.72
2023-02-18T11:08:49.227Z,97740.56
2023-02-18T11:11:15.994Z,97758.22
2023-02-18T11:13:42.417Z,97759.00
2023-02-18T11:16:08.898Z,97758.22
2023-02-18T11:18:39.214Z,97762.50
2023-02-18T11:21:06.180Z,97755.28
2023-02-18T11:23:33.601Z,97753.19
2023-02-18T11:25:59.896Z,97762.53
2023-02-18T11:28:26.420Z,97769.50
2023-02-18T11:30:52.928Z,97770.28
2023-02-18T11:33:19.253Z,97762.53
2023-02-18T11:35:45.562Z,97761.50
2023-02-18T11:38:12.090Z,97774.03
2023-02-18T11:40:38.669Z,97770.28
2023-02-18T11:43:05.014Z,97768.19
2023-02-18T11:45:34.719Z,97763.66
2023-02-18T11:48:00.992Z,97772.22
2023-02-18T11:50:27.274Z,97769.81
2023-02-18T11:52:53.615Z,97756.69
2023-02-18T11:55:22.232Z,97758.31
2023-02-18T11:57:48.707Z,97755.41
2023-02-18T12:00:15.294Z,97754.31
2023-02-18T12:02:41.667Z,97748.44
2023-02-18T12:05:08.152Z,97752.72
2023-02-18T12:07:35.036Z,97751.91
2023-02-18T12:10:01.480Z,97762.59
2023-02-18T12:12:28.747Z,97756.69
2023-02-18T12:14:55.108Z,97766.03
2023-02-18T12:17:23.572Z,97767.06
2023-02-18T12:19:50.957Z,97773.47
2023-02-18T12:22:17.289Z,97758.53
2023-02-18T12:24:43.685Z,97768.38
2023-02-18T12:27:10.897Z,97764.91
2023-02-18T12:29:37.240Z,97759.81
2023-02-18T12:32:03.593Z,97750.44
2023-02-18T12:37:13.785Z,97754.16
2023-02-18T12:39:40.985Z,97759.50
2023-02-18T12:42:07.302Z,97760.03
2023-02-18T12:44:34.359Z,97766.97
2023-02-18T12:47:01.051Z,97763.72
2023-02-18T12:49:27.561Z,97760.28
2023-02-18T12:51:54.139Z,97753.06
2023-02-18T12:54:20.955Z,97762.13
2023-02-18T12:56:47.276Z,97778.16
2023-02-18T12:59:13.537Z,97760.50
2023-02-18T13:01:39.802Z,97754.38
2023-02-18T13:04:06.113Z,97758.09
2023-02-18T13:06:32.392Z,97773.31
2023-02-18T13:08:58.855Z,97768.75
2023-02-18T13:11:25.295Z,97757.28
2023-02-18T13:13:51.643Z,97761.81
2023-02-18T13:16:18.659Z,97761.00
2023-02-18T13:18:44.959Z,97755.09
2023-02-18T13:21:11.452Z,97762.31
2023-02-18T13:23:37.891Z,97764.19
2023-02-18T13:26:04.156Z,97759.88
2023-02-18T13:28:30.469Z,97772.44
2023-02-18T13:30:57.027Z,97765.47
2023-02-18T13:33:23.684Z,97771.88
2023-02-18T13:35:50.004Z,97762.28
2023-02-18T13:38:17.390Z,97757.16
2023-02-18T13:40:43.875Z,97773.16
2023-02-18T13:43:10.389Z,97768.91
2023-02-18T13:45:36.661Z,97772.63
2023-02-18T13:48:03.570Z,97767.28
2023-02-18T13:50:29.994Z,97773.69
2023-02-18T13:52:56.496Z,97766.72
2023-02-18T13:55:22.998Z,97772.84
2023-02-18T13:57:49.404Z,97766.72
2023-02-18T14:00:15.661Z,97762.44
2023-02-18T14:02:42.038Z,97759.19
2023-02-18T14:05:08.636Z,97759.19
2023-02-18T14:07:34.980Z,97761.88
2023-02-18T14:10:01.272Z,97761.88
2023-02-18T14:12:27.528Z,97741.59
2023-02-18T14:14:53.799Z,97750.66
2023-02-18T14:17:20.944Z,97757.84
2023-02-18T14:19:47.302Z,97753.56
2023-02-18T14:22:13.787Z,97755.69
2023-02-18T14:24:41.694Z,97761.03
2023-02-18T14:27:08.526Z,97766.59
2023-02-18T14:29:35.026Z,97778.06
2023-02-18T14:32:01.395Z,97755.91
2023-02-18T14:34:27.911Z,97755.91
2023-02-18T14:36:54.173Z,97756.16
2023-02-18T14:39:20.555Z,97747.91
2023-02-18T14:41:46.867Z,97760.47
2023-02-18T14:44:13.494Z,97760.47
2023-02-18T14:46:40.102Z,97755.13
2023-02-18T14:49:06.651Z,97750.56
2023-02-18T14:51:33.539Z,97755.91
2023-02-18T14:54:02.780Z,97754.31
2023-02-18T14:56:29.771Z,97752.72
2023-02-18T14:58:56.039Z,97756.41
2023-02-18T15:01:22.299Z,97751.06
2023-02-18T15:03:48.639Z,97759.09
2023-02-18T15:06:15.161Z,97761.75
2023-02-18T15:08:42.561Z,97757.22
2023-02-18T15:11:09.003Z,97754.81
2023-02-18T15:13:35.610Z,97758.25
2023-02-18T15:16:01.876Z,97752.16
2023-02-18T15:21:18.308Z,97774.53
2023-02-18T15:23:44.606Z,97771.28
2023-02-18T15:26:11.515Z,97779.31
2023-02-18T15:28:38.539Z,97780.38
2023-02-18T15:31:04.901Z,97785.72
2023-02-18T15:33:32.082Z,97784.09
2023-02-18T15:35:58.604Z,97782.47
2023-02-18T15:38:25.518Z,97783.53
2023-02-18T15:40:52.049Z,97797.66
2023-02-18T15:43:18.554Z,97784.56
2023-02-18T15:45:44.970Z,97796.31
2023-02-18T15:48:12.390Z,97802.72
2023-02-18T15:50:38.686Z,97796.56
2023-02-18T15:53:05.058Z,97802.16
2023-02-18T15:55:31.471Z,97813.59
2023-02-18T15:57:58.411Z,97806.41
2023-02-18T16:00:24.877Z,97811.75
2023-02-18T16:02:51.458Z,97815.00
2023-02-18T16:05:18.535Z,97823.81
2023-02-18T16:07:44.802Z,97818.22
2023-02-18T16:10:11.220Z,97829.47
2023-02-18T16:12:37.769Z,97824.66
2023-02-18T16:15:04.109Z,97840.19
2023-02-18T16:17:31.234Z,97840.19
2023-02-18T16:20:04.907Z,97837.84
2023-02-18T16:22:31.805Z,97857.09
2023-02-18T16:24:58.440Z,97845.34
2023-02-18T16:27:24.733Z,97844.06
2023-02-18T16:29:51.046Z,97842.19
2023-02-18T16:32:17.503Z,97848.09
2023-02-18T16:34:43.911Z,97857.94
2023-02-18T16:37:10.448Z,97855.84
2023-02-18T16:39:36.790Z,97866.28
2023-02-18T16:42:04.270Z,97870.81
2023-02-18T16:44:30.701Z,97872.44
2023-02-18T16:46:57.115Z,97874.06
2023-02-18T16:52:08.501Z,97886.09
2023-02-18T16:54:35.255Z,97890.63
2023-02-18T16:57:01.678Z,97884.50
2023-02-18T16:59:27.968Z,97888.75
2023-02-18T17:01:54.883Z,97887.94
2023-02-18T17:04:21.349Z,97890.63
2023-02-18T17:06:48.438Z,97886.09
2023-02-18T17:09:15.123Z,97894.09
2023-02-18T17:11:41.523Z,97886.91
2023-02-18T17:14:08.269Z,97886.66
2023-02-18T17:16:34.690Z,97897.59
2023-02-18T17:19:00.980Z,97900.81
2023-02-18T17:21:27.353Z,97910.69
2023-02-18T17:23:54.257Z,97914.94
2023-02-18T17:26:20.814Z,97909.63
2023-02-18T17:28:47.218Z,97915.78
2023-02-18T17:31:13.602Z,97912.84
2023-02-18T17:33:39.945Z,97923.28
2023-02-18T17:36:06.276Z,97924.09
2023-02-18T17:38:32.629Z,97921.44
2023-02-18T17:40:58.891Z,97917.94
2023-02-18T17:43:25.253Z,97917.69
2023-02-18T17:45:51.708Z,97915.84
2023-02-18T17:48:18.396Z,97924.41
2023-02-18T17:50:45.196Z,97931.34
2023-02-18T17:53:11.502Z,97923.34
2023-02-18T17:55:37.956Z,97923.13
2023-02-18T17:58:04.423Z,97928.47
2023-02-18T18:00:30.712Z,97933.00
2023-02-18T18:02:57.042Z,97925.56
2023-02-18T18:05:23.322Z,97936.22
2023-02-18T18:07:49.683Z,97935.16
2023-02-18T18:10:16.027Z,97933.56
2023-02-18T18:12:42.502Z,97941.56
2023-02-18T18:15:08.752Z,97936.22
2023-02-18T18:17:35.930Z,97935.41
2023-02-18T18:20:02.361Z,97948.75
2023-02-18T18:22:28.731Z,97949.81
2023-02-18T18:24:55.062Z,97942.84
2023-02-18T18:27:21.651Z,97935.91
2023-02-18T18:29:47.963Z,97942.84
2023-02-18T18:32:14.236Z,97943.91
2023-02-18T18:34:40.463Z,97942.28
2023-02-18T18:37:06.771Z,97932.69
2023-02-18T18:39:33.056Z,97929.19
2023-02-18T18:41:59.462Z,97925.69
2023-02-18T18:44:26.060Z,97931.28
2023-02-18T18:46:52.322Z,97923.28
2023-02-18T18:49:19.823Z,97922.50
2023-02-18T18:51:46.215Z,97917.94
2023-02-18T18:54:12.537Z,97919.56
2023-02-18T18:56:39.044Z,97913.16
2023-02-18T18:59:05.855Z,97920.94
2023-02-18T19:01:32.292Z,97917.47
2023-02-18T19:03:58.885Z,97918.25
2023-02-18T19:06:25.573Z,97912.66
2023-02-18T19:08:53.285Z,97918.25
2023-02-18T19:11:22.129Z,97915.34
2023-02-18T19:13:48.485Z,97925.22
2023-02-18T19:16:14.927Z,97914.56
2023-02-18T19:18:41.836Z,97924.16
2023-02-18T19:21:08.795Z,97926.84
2023-02-18T19:23:35.335Z,97931.34
2023-02-18T19:26:01.628Z,97933.81
2023-02-18T19:28:27.936Z,97935.66
2023-02-18T19:30:54.596Z,97929.50
2023-02-18T19:33:21.466Z,97927.66
2023-02-18T19:35:47.737Z,97929.50
2023-02-18T19:38:14.196Z,97934.03
2023-02-18T19:40:40.958Z,97935.09
2023-02-18T19:43:08.061Z,97929.75
2023-02-18T19:45:34.796Z,97923.59
2023-02-18T19:48:01.092Z,97934.28
2023-02-18T19:50:27.402Z,97931.84
2023-02-18T19:52:53.859Z,97929.19
2023-02-18T19:55:20.154Z,97934.53
2023-02-18T19:57:46.471Z,97930.25
2023-02-18T20:00:12.764Z,97937.44
2023-02-18T20:02:40.143Z,97932.34
2023-02-18T20:05:06.588Z,97938.50
2023-02-18T20:07:33.080Z,97929.69
2023-02-18T20:09:59.427Z,97928.63
2023-02-18T20:12:25.743Z,97935.59
2023-02-18T20:14:52.962Z,97936.38
2023-02-18T20:17:19.294Z,97932.69
2023-02-18T20:19:45.919Z,97927.09
2023-02-18T20:22:13.163Z,97946.59
2023-02-18T20:24:39.402Z,97942.03
2023-02-18T20:27:05.842Z,97946.34
2023-02-18T20:29:33.244Z,97933.81
2023-02-18T20:32:00.566Z,97935.41
2023-02-18T20:34:26.898Z,97931.69
2023-02-18T20:36:53.653Z,97932.50
2023-02-18T20:39:19.951Z,97921.81
2023-02-18T20:41:46.489Z,97921.81
2023-02-18T20:44:12.869Z,97917.53
2023-02-18T20:46:39.319Z,97920.22
2023-02-18T20:49:06.723Z,97909.53
2023-02-18T20:51:34.109Z,97918.56
2023-02-18T20:54:01.251Z,97913.22
2023-02-18T20:56:27.700Z,97920.69
2023-02-18T20:58:54.038Z,97922.31
2023-02-18T21:01:20.584Z,97923.34
2023-02-18T21:03:47.784Z,97919.06
2023-02-18T21:06:14.503Z,97919.06
2023-02-18T21:08:40.916Z,97916.66
2023-02-18T21:11:07.617Z,97916.66
2023-02-18T21:13:34.585Z,97909.69
2023-02-18T21:16:00.895Z,97916.09
2023-02-18T21:18:27.219Z,97916.34
2023-02-18T21:20:53.659Z,97916.34
2023-02-18T21:23:20.124Z,97915.78
2023-02-18T21:25:46.525Z,97907.75
2023-02-18T21:28:13.135Z,97906.16
2023-02-18T21:30:39.401Z,97906.16
2023-02-18T21:33:05.818Z,97905.34
2023-02-18T21:35:33.240Z,97904.53
2023-02-18T21:37:59.559Z,97903.75
2023-02-18T21:40:25.940Z,97896.75
2023-02-18T21:42:52.353Z,97894.91
2023-02-18T21:45:18.795Z,97894.09
2023-02-18T21:47:45.781Z,97897.59
2023-02-18T21:50:14.048Z,97897.59
2023-02-18T21:52:42.837Z,97891.44
2023-02-18T21:55:09.112Z,97886.91
2023-02-18T21:57:35.369Z,97884.25
2023-02-18T22:00:14.690Z,97880.75
2023-02-18T22:02:49.099Z,97865.81
2023-02-18T22:05:16.129Z,97871.94
2023-02-18T22:07:42.481Z,97871.16
2023-02-18T22:10:08.912Z,97874.59
2023-02-18T22:12:35.229Z,97867.66
2023-02-18T22:15:01.527Z,97871.41
2023-02-18T22:17:27.818Z,97863.53
2023-02-18T22:19:54.315Z,97858.31
2023-02-18T22:22:20.756Z,97858.06
2023-02-18T22:24:47.878Z,97840.22
2023-02-18T22:27:15.960Z,97844.25
2023-02-18T22:29:45.943Z,97845.88
2023-02-18T22:32:12.633Z,97843.28
2023-02-18T22:34:39.058Z,97850.31
2023-02-18T22:37:05.459Z,97852.25
2023-02-18T22:42:16.218Z,97852.63
2023-02-18T22:44:43.244Z,97858.28
2023-02-18T22:47:09.794Z,97853.53
2023-02-18T22:49:36.351Z,97844.50
2023-02-18T22:52:02.657Z,97849.56
2023-02-18T22:54:28.988Z,97847.72
2023-02-18T22:56:56.442Z,97843.16
2023-02-18T22:59:22.741Z,97845.84
2023-02-18T23:01:49.429Z,97838.69
2023-02-18T23:04:16.034Z,97842.16
2023-02-18T23:06:42.418Z,97844.84
2023-02-18T23:09:09.328Z,97841.91
2023-02-18T23:11:36.555Z,97832.28
2023-02-18T23:14:03.742Z,97832.28
2023-02-18T23:16:30.088Z,97828.81
2023-02-18T23:18:57.348Z,97823.50
2023-02-18T23:21:24.083Z,97826.16
2023-02-18T23:23:50.408Z,97828.81
2023-02-18T23:26:16.703Z,97824.28
2023-02-18T23:28:46.751Z,97828.56
2023-02-18T23:31:14.436Z,97835.53
2023-02-18T23:33:44.300Z,97832.06
2023-02-18T23:36:14.513Z,97828.56
2023-02-18T23:38:47.503Z,97833.09
2023-02-18T23:41:18.260Z,97826.94
2023-02-18T23:43:47.561Z,97826.16
2023-02-18T23:46:17.993Z,97822.69
2023-02-18T23:48:45.960Z,97803.16
2023-02-18T23:51:20.590Z,97811.16
2023-02-18T23:53:47.229Z,97799.69
2023-02-18T23:56:14.054Z,97797.75
2023-02-18T23:58:41.130Z,97795.03
